Time;durP1;ratioP1;P1;durP2;ratioP2;P2;SDS_P1;SDS_P2;PMS_P1;PMS_P2;Temp;Humidity;BMP_temperature;BMP_pressure;BME280_temperature;BME280_humidity;BME280_pressure;Samples;Min_cycle;Max_cycle;Signal;HPM_P1;HPM_P2
2021/01/01 00:01:32;;;;;;;4.45;3.58;;;11.60;81.60;;;;;;5123796;28;20734;-43
2021/01/01 00:03:59;;;;;;;6.65;4.97;;;11.60;81.60;;;;;;5124464;28;20666;-44
2021/01/01 00:06:25;;;;;;;6.15;4.72;;;11.60;81.60;;;;;;5117728;28;20035;-45
2021/01/01 00:08:51;;;;;;;6.47;4.60;;;11.60;81.60;;;;;;5104037;28;20032;-43
2021/01/01 00:11:17;;;;;;;5.47;4.32;;;11.60;81.60;;;;;;5103678;28;20051;-43
2021/01/01 00:13:43;;;;;;;7.05;5.38;;;11.60;81.60;;;;;;5104423;28;20046;-43
2021/01/01 00:16:11;;;;;;;7.30;5.10;;;11.60;81.60;;;;;;5124345;28;20052;-43
2021/01/01 00:18:38;;;;;;;5.50;4.78;;;11.60;81.60;;;;;;5124093;28;20055;-43
2021/01/01 00:21:04;;;;;;;;;;;11.60;81.60;;;;;;5104048;28;20047;-43
2021/01/01 00:23:30;;;;;;;5.45;4.35;;;11.60;81.60;;;;;;5103745;28;19914;-43
2021/01/01 00:25:57;;;;;;;5.55;4.75;;;11.60;81.60;;;;;;5103629;28;20103;-43
2021/01/01 00:28:23;;;;;;;5.63;4.40;;;11.60;81.60;;;;;;5103800;28;20020;-43
2021/01/01 00:30:49;;;;;;;6.00;4.63;;;11.60;81.60;;;;;;5117868;28;20032;-43
2021/01/01 00:33:15;;;;;;;5.32;4.45;;;11.60;81.60;;;;;;5123869;28;20027;-43
2021/01/01 00:35:41;;;;;;;5.15;4.35;;;11.60;81.60;;;;;;5123470;28;20019;-43
2021/01/01 00:38:07;;;;;;;5.88;4.70;;;11.60;81.60;;;;;;5103364;28;20047;-44
2021/01/01 00:40:34;;;;;;;5.05;4.22;;;11.60;81.60;;;;;;5103340;28;20032;-45
2021/01/01 00:43:00;;;;;;;5.93;4.90;;;11.60;81.60;;;;;;5102990;28;20020;-44
2021/01/01 00:45:26;;;;;;;4.68;4.05;;;11.60;81.60;;;;;;5103421;28;20035;-44
2021/01/01 00:47:52;;;;;;;5.20;4.57;;;11.60;81.60;;;;;;5103256;28;20778;-43
2021/01/01 00:50:18;;;;;;;4.70;4.10;;;11.60;81.60;;;;;;5114377;28;20030;-44
2021/01/01 00:52:45;;;;;;;6.03;4.22;;;11.60;81.60;;;;;;5123400;28;20039;-43
2021/01/01 00:55:11;;;;;;;5.20;4.70;;;11.60;82.30;;;;;;5123441;28;20035;-43
2021/01/01 00:57:37;;;;;;;5.18;4.35;;;11.60;81.70;;;;;;5123408;28;20031;-44
2021/01/01 01:00:05;;;;;;;5.20;4.60;;;11.60;81.60;;;;;;5115754;28;20548;-43
2021/01/01 01:02:32;;;;;;;5.75;4.60;;;11.60;81.60;;;;;;5103099;28;20020;-43
2021/01/01 01:04:58;;;;;;;5.53;4.50;;;11.60;81.60;;;;;;5102790;28;20103;-43
2021/01/01 01:07:24;;;;;;;5.55;4.20;;;11.60;81.60;;;;;;5102710;28;20039;-43
2021/01/01 01:09:51;;;;;;;5.05;4.55;;;11.60;81.60;;;;;;5103157;28;20031;-43
2021/01/01 01:12:21;;;;;;;6.28;4.78;;;11.60;81.60;;;;;;5102582;28;20036;-44
2021/01/01 01:14:47;;;;;;;5.45;4.50;;;11.70;81.60;;;;;;5102186;28;20035;-43
2021/01/01 01:17:13;;;;;;;5.15;4.25;;;11.60;81.60;;;;;;5102699;28;20523;-44
2021/01/01 01:19:40;;;;;;;4.97;3.97;;;11.70;81.70;;;;;;5111115;28;20071;-44
2021/01/01 01:22:06;;;;;;;3.85;3.30;;;11.60;81.60;;;;;;5123262;28;20031;-43
2021/01/01 01:24:32;;;;;;;5.03;4.20;;;11.70;81.70;;;;;;5119716;28;20034;-43
2021/01/01 01:26:58;;;;;;;5.15;4.40;;;11.70;81.60;;;;;;5123092;28;20030;-43
2021/01/01 01:29:25;;;;;;;4.95;4.10;;;11.70;81.70;;;;;;5120789;28;20030;-43
2021/01/01 01:31:51;;;;;;;4.72;4.22;;;11.70;81.60;;;;;;5116975;28;20027;-44
2021/01/01 01:34:17;;;;;;;4.97;4.20;;;11.70;81.60;;;;;;5122679;28;20092;-43
2021/01/01 01:36:43;;;;;;;4.60;3.90;;;11.70;81.70;;;;;;5113808;28;20061;-43
2021/01/01 01:39:09;;;;;;;4.30;3.85;;;11.70;81.60;;;;;;5102618;28;20694;-44
2021/01/01 01:41:35;;;;;;;4.28;3.78;;;11.70;81.70;;;;;;5116636;28;20031;-44
2021/01/01 01:44:02;;;;;;;4.57;4.15;;;11.70;81.60;;;;;;5102359;28;20031;-44
2021/01/01 01:46:41;;;;;;;4.35;3.85;;;11.70;81.60;;;;;;5102460;28;20028;-43
2021/01/01 01:49:10;;;;;;;4.53;3.90;;;11.70;81.60;;;;;;5084319;28;20032;-43
2021/01/01 01:51:36;;;;;;;5.20;4.10;;;11.70;81.60;;;;;;5102278;28;20042;-44
2021/01/01 01:54:02;;;;;;;5.53;4.28;;;11.70;81.60;;;;;;5102411;28;20028;-43
2021/01/01 01:56:29;;;;;;;4.77;3.70;;;11.70;81.60;;;;;;5083975;28;20024;-43
2021/01/01 01:58:55;;;;;;;4.97;4.07;;;11.70;81.60;;;;;;5067489;28;20396;-43
2021/01/01 02:01:22;;;;;;;4.53;4.13;;;11.70;81.60;;;;;;5082692;28;20102;-43
2021/01/01 02:03:48;;;;;;;4.25;3.78;;;11.70;81.60;;;;;;5102160;28;20078;-43
2021/01/01 02:06:14;;;;;;;4.32;3.70;;;11.70;81.60;;;;;;5107246;28;20039;-44
2021/01/01 02:08:40;;;;;;;5.70;4.20;;;11.70;81.70;;;;;;5122614;28;20102;-43
2021/01/01 02:11:07;;;;;;;4.93;3.92;;;11.70;81.70;;;;;;5122584;28;20028;-43
2021/01/01 02:13:33;;;;;;;4.43;3.97;;;11.70;81.70;;;;;;5104581;28;20091;-43
2021/01/01 02:15:59;;;;;;;4.97;3.90;;;11.70;81.60;;;;;;5104166;28;20027;-43
2021/01/01 02:18:38;;;;;;;5.07;4.32;;;11.70;81.70;;;;;;5119117;28;20042;-44
2021/01/01 02:21:05;;;;;;;4.28;3.83;;;11.70;81.70;;;;;;5122608;28;20027;-43
2021/01/01 02:23:32;;;;;;;5.10;4.15;;;11.70;81.70;;;;;;5122425;28;20028;-43
2021/01/01 02:25:58;;;;;;;4.63;4.22;;;11.70;81.70;;;;;;5125812;28;20052;-43
2021/01/01 02:28:24;;;;;;;4.70;3.80;;;11.70;81.70;;;;;;5126640;28;20038;-44
2021/01/01 02:30:50;;;;;;;4.78;3.80;;;11.70;81.70;;;;;;5112033;28;20081;-43
2021/01/01 02:33:16;;;;;;;4.05;3.65;;;11.70;81.70;;;;;;5088059;28;20035;-43
2021/01/01 02:35:43;;;;;;;4.38;3.95;;;11.70;81.60;;;;;;5105561;28;20038;-44
2021/01/01 02:38:09;;;;;;;5.15;4.03;;;11.70;81.70;;;;;;5105958;28;20085;-43
2021/01/01 02:40:35;;;;;;;4.55;3.80;;;11.70;81.60;;;;;;5109103;28;20510;-43
2021/01/01 02:43:01;;;;;;;4.82;4.18;;;11.70;81.60;;;;;;5113752;28;20028;-44
2021/01/01 02:45:27;;;;;;;4.75;4.10;;;11.70;81.70;;;;;;5105758;28;20032;-44
2021/01/01 02:47:53;;;;;;;4.47;4.07;;;11.70;81.70;;;;;;5105809;28;20050;-44
2021/01/01 02:50:19;;;;;;;4.25;3.85;;;11.70;81.70;;;;;;5105619;28;20028;-45
2021/01/01 02:52:46;;;;;;;4.35;3.63;;;11.70;81.70;;;;;;5105632;28;20027;-43
2021/01/01 02:55:12;;;;;;;4.57;3.85;;;11.70;81.60;;;;;;5105412;28;20055;-43
2021/01/01 02:57:39;;;;;;;4.37;3.73;;;11.70;81.60;;;;;;5105657;28;20017;-43
2021/01/01 03:00:06;;;;;;;3.97;3.57;;;11.70;81.60;;;;;;5113453;28;20065;-43
2021/01/01 03:02:32;;;;;;;4.22;3.83;;;11.70;81.70;;;;;;5126011;28;20663;-43
2021/01/01 03:04:58;;;;;;;4.55;4.13;;;11.70;81.60;;;;;;5117900;28;20048;-43
2021/01/01 03:07:24;;;;;;;4.63;3.80;;;11.70;81.60;;;;;;5105353;28;20024;-44
2021/01/01 03:09:50;;;;;;;4.57;3.95;;;11.70;81.60;;;;;;5105223;28;20088;-44
2021/01/01 03:12:17;;;;;;;5.45;3.70;;;11.70;81.60;;;;;;5105104;28;20032;-43
2021/01/01 03:14:43;;;;;;;4.20;3.60;;;11.70;81.60;;;;;;5105235;28;20020;-44
2021/01/01 03:17:09;;;;;;;4.68;3.63;;;11.70;81.60;;;;;;5104655;28;20056;-44
2021/01/01 03:19:35;;;;;;;4.50;3.78;;;11.70;82.40;;;;;;5108848;28;20404;-43
2021/01/01 03:22:01;;;;;;;4.53;3.78;;;11.80;81.70;;;;;;5105030;28;20031;-43
2021/01/01 03:24:27;;;;;;;4.75;3.80;;;11.70;81.60;;;;;;5121268;28;20051;-43
2021/01/01 03:26:53;;;;;;;4.55;4.03;;;11.70;81.60;;;;;;5125058;28;20019;-44
2021/01/01 03:29:20;;;;;;;4.68;3.50;;;11.70;81.60;;;;;;5123656;28;20054;-44
2021/01/01 03:31:46;;;;;;;4.25;3.75;;;11.70;81.60;;;;;;5105024;28;20044;-43
2021/01/01 03:34:12;;;;;;;4.50;3.78;;;11.70;81.50;;;;;;5104784;28;20024;-43
2021/01/01 03:36:38;;;;;;;4.60;3.85;;;11.70;81.50;;;;;;5103358;28;20032;-43
2021/01/01 03:39:04;;;;;;;5.80;3.65;;;11.70;81.50;;;;;;5104543;28;20088;-43
2021/01/01 03:41:32;;;;;;;3.83;3.42;;;11.70;81.50;;;;;;5104571;28;20020;-43
2021/01/01 03:43:58;;;;;;;4.57;3.92;;;11.70;81.50;;;;;;5104714;28;20051;-43
2021/01/01 03:46:24;;;;;;;3.92;3.50;;;11.80;81.70;;;;;;5106455;28;20024;-44
2021/01/01 03:48:50;;;;;;;4.10;3.70;;;11.80;81.60;;;;;;5108364;28;20052;-43
2021/01/01 03:51:16;;;;;;;4.28;3.50;;;11.70;81.60;;;;;;5104409;28;20028;-43
2021/01/01 03:53:42;;;;;;;4.05;3.65;;;11.80;82.40;;;;;;5104333;28;20028;-43
2021/01/01 03:56:10;;;;;;;3.60;3.28;;;11.80;81.60;;;;;;5104102;28;20028;-43
2021/01/01 03:58:37;;;;;;;4.03;3.58;;;11.80;81.60;;;;;;5086139;28;20107;-43
2021/01/01 04:01:05;;;;;;;4.13;3.53;;;11.80;81.60;;;;;;5120434;28;20032;-43
2021/01/01 04:03:31;;;;;;;4.38;3.45;;;11.80;81.70;;;;;;5124669;28;20028;-43
2021/01/01 04:05:58;;;;;;;2.90;2.42;;;11.80;81.70;;;;;;5121642;28;20059;-44
2021/01/01 04:08:24;;;;;;;3.80;3.38;;;11.80;81.70;;;;;;5104131;28;20096;-43
2021/01/01 04:10:50;;;;;;;3.78;3.38;;;11.80;81.70;;;;;;5104104;28;20031;-43
2021/01/01 04:13:17;;;;;;;3.72;3.30;;;11.80;81.60;;;;;;5103956;28;20028;-43
2021/01/01 04:15:44;;;;;;;4.40;3.70;;;11.80;81.60;;;;;;5106609;28;20023;-45
2021/01/01 04:18:11;;;;;;;4.13;3.72;;;11.80;81.70;;;;;;5103611;28;20048;-43
2021/01/01 04:20:37;;;;;;;4.00;3.60;;;11.80;81.60;;;;;;5120267;28;20040;-44
2021/01/01 04:23:03;;;;;;;4.47;3.80;;;11.80;81.60;;;;;;5124196;28;20032;-44
2021/01/01 04:25:30;;;;;;;3.60;3.30;;;11.80;81.60;;;;;;5124313;28;20035;-44
2021/01/01 04:27:56;;;;;;;4.07;3.47;;;11.80;81.60;;;;;;5123759;28;20039;-44
2021/01/01 04:30:22;;;;;;;3.60;3.30;;;11.80;81.60;;;;;;5113759;28;20028;-43
2021/01/01 04:32:48;;;;;;;4.45;3.70;;;11.80;81.60;;;;;;5103773;28;20115;-43
2021/01/01 04:35:14;;;;;;;3.45;3.13;;;11.80;81.60;;;;;;5103851;28;20024;-43
2021/01/01 04:37:41;;;;;;;3.92;3.53;;;11.80;81.60;;;;;;5103273;28;20024;-44
2021/01/01 04:40:07;;;;;;;3.55;3.08;;;11.80;81.60;;;;;;5103433;28;20040;-43
2021/01/01 04:42:34;;;;;;;4.20;3.40;;;11.80;81.60;;;;;;5109198;28;20050;-44
2021/01/01 04:45:00;;;;;;;3.47;3.17;;;11.80;81.60;;;;;;5121766;28;20028;-45
2021/01/01 04:47:27;;;;;;;3.65;3.30;;;11.80;81.60;;;;;;5088441;28;20424;-44
2021/01/01 04:49:53;;;;;;;3.83;3.42;;;11.80;81.60;;;;;;5105543;28;20024;-44
2021/01/01 04:52:19;;;;;;;4.15;3.17;;;11.80;81.60;;;;;;5105377;28;20024;-44
2021/01/01 04:54:46;;;;;;;3.50;3.15;;;11.80;81.60;;;;;;5123746;28;20256;-43
2021/01/01 04:57:12;;;;;;;4.23;3.50;;;11.80;81.60;;;;;;5123319;28;20024;-43
2021/01/01 04:59:39;;;;;;;2.67;2.42;;;11.80;81.60;;;;;;5101160;28;20277;-44
2021/01/01 05:02:05;;;;;;;4.60;3.83;;;11.80;81.60;;;;;;5103320;28;20401;-44
2021/01/01 05:04:31;;;;;;;4.13;3.70;;;11.90;81.60;;;;;;5103142;28;20031;-45
2021/01/01 05:06:58;;;;;;;3.95;3.20;;;11.80;81.60;;;;;;5102662;28;20038;-44
2021/01/01 05:09:25;;;;;;;3.22;2.92;;;11.80;81.60;;;;;;5084876;28;20028;-45
2021/01/01 05:12:04;;;;;;;3.53;3.03;;;11.80;81.50;;;;;;5068137;28;20054;-44
2021/01/01 05:14:31;;;;;;;3.70;3.15;;;11.80;81.50;;;;;;5087028;28;20039;-45
2021/01/01 05:16:57;;;;;;;3.65;2.95;;;11.80;81.50;;;;;;5067619;28;20028;-44
2021/01/01 05:19:23;;;;;;;3.05;2.75;;;11.80;81.50;;;;;;5108968;28;20118;-44
2021/01/01 05:22:04;;;;;;;3.47;3.17;;;11.80;81.60;;;;;;5084417;28;20035;-45
2021/01/01 05:24:35;;;;;;;3.58;3.22;;;11.90;81.60;;;;;;5085352;28;20096;-45
2021/01/01 05:27:17;;;;;;;3.38;3.08;;;11.90;81.60;;;;;;5103572;28;20028;-44
2021/01/01 05:29:51;;;;;;;3.80;3.25;;;11.90;81.70;;;;;;5091668;28;20016;-45
2021/01/01 05:32:22;;;;;;;3.65;3.25;;;11.90;81.60;;;;;;5104788;28;20027;-44
2021/01/01 05:34:48;;;;;;;3.72;3.35;;;11.90;81.60;;;;;;5123030;28;20046;-44
2021/01/01 05:37:25;;;;;;;3.60;3.10;;;11.90;81.50;;;;;;5109242;28;20036;-44
2021/01/01 05:40:00;;;;;;;3.08;2.78;;;11.90;81.60;;;;;;5102601;28;20051;-44
2021/01/01 05:42:26;;;;;;;3.92;3.38;;;11.90;81.60;;;;;;5102609;28;20028;-44
2021/01/01 05:44:52;;;;;;;3.38;3.00;;;11.90;81.50;;;;;;5102763;28;20031;-45
2021/01/01 05:47:19;;;;;;;3.75;3.30;;;11.90;81.60;;;;;;5084239;28;20074;-43
2021/01/01 05:49:45;;;;;;;2.83;2.33;;;11.90;81.50;;;;;;5102374;28;20046;-43
2021/01/01 05:52:13;;;;;;;3.40;3.10;;;11.90;81.50;;;;;;5106930;28;20043;-44
2021/01/01 05:54:40;;;;;;;3.42;3.13;;;11.90;81.60;;;;;;5113766;28;20027;-43
2021/01/01 05:57:08;;;;;;;3.97;3.28;;;11.90;81.50;;;;;;5122896;28;20381;-44
2021/01/01 05:59:36;;;;;;;3.33;2.97;;;11.90;81.60;;;;;;5120240;28;20032;-44
2021/01/01 06:02:02;;;;;;;4.05;3.55;;;11.90;81.60;;;;;;5106726;28;20036;-44
2021/01/01 06:04:28;;;;;;;3.25;2.95;;;11.90;81.60;;;;;;5106588;28;20020;-43
2021/01/01 06:06:55;;;;;;;3.15;2.85;;;11.90;81.50;;;;;;5088499;28;20043;-44
2021/01/01 06:09:21;;;;;;;3.20;2.90;;;11.90;81.50;;;;;;5109485;28;20088;-44
2021/01/01 06:12:07;;;;;;;3.27;2.97;;;11.90;81.50;;;;;;5106404;28;20080;-44
2021/01/01 06:14:36;;;;;;;3.17;2.78;;;11.90;81.50;;;;;;5106256;28;20032;-43
2021/01/01 06:17:11;;;;;;;3.13;2.72;;;11.90;81.50;;;;;;5106265;28;20043;-43
2021/01/01 06:19:40;;;;;;;3.88;3.40;;;11.90;81.50;;;;;;5114051;28;20073;-43
2021/01/01 06:22:06;;;;;;;3.20;2.88;;;11.90;81.50;;;;;;5126735;28;20038;-44
2021/01/01 06:24:32;;;;;;;3.83;3.33;;;11.90;81.60;;;;;;5091609;28;20027;-44
2021/01/01 06:26:59;;;;;;;3.57;3.17;;;11.90;81.50;;;;;;5091557;28;20028;-44
2021/01/01 06:29:25;;;;;;;3.88;3.40;;;11.90;81.50;;;;;;5105884;28;20027;-43
2021/01/01 06:31:51;;;;;;;3.15;2.85;;;11.90;81.50;;;;;;5087804;28;20047;-44
2021/01/01 06:34:43;;;;;;;3.30;3.00;;;11.90;81.60;;;;;;5087953;28;20024;-44
2021/01/01 06:37:29;;;;;;;2.97;2.55;;;11.90;81.50;;;;;;5101391;28;20047;-43
2021/01/01 06:39:56;;;;;;;3.35;2.50;;;11.90;81.60;;;;;;5092187;28;20032;-43
2021/01/01 06:42:22;;;;;;;3.38;3.08;;;12.00;81.60;;;;;;5106045;28;20027;-43
2021/01/01 06:44:49;;;;;;;3.20;2.90;;;12.00;81.60;;;;;;5070950;28;20020;-43
2021/01/01 06:47:42;;;;;;;3.38;3.08;;;12.00;81.60;;;;;;5105923;28;20038;-43
2021/01/01 06:50:27;;;;;;;3.60;3.15;;;12.00;81.60;;;;;;5105526;28;20079;-43
2021/01/01 06:53:26;;;;;;;3.45;2.92;;;12.00;81.60;;;;;;5105668;28;20349;-43
2021/01/01 06:55:52;;;;;;;3.28;2.97;;;12.00;82.30;;;;;;5105828;28;20035;-43
2021/01/01 06:58:25;;;;;;;2.95;2.67;;;12.00;81.60;;;;;;5086951;28;20046;-44
2021/01/01 07:00:52;;;;;;;3.38;3.08;;;12.00;81.60;;;;;;5120065;28;20040;-43
2021/01/01 07:03:37;;;;;;;3.45;3.05;;;12.00;81.60;;;;;;5125998;28;20069;-43
2021/01/01 07:06:04;;;;;;;3.03;2.70;;;12.00;81.60;;;;;;5122234;28;20032;-43
2021/01/01 07:08:45;;;;;;;3.92;3.03;;;12.00;81.60;;;;;;5105112;28;20027;-44
2021/01/01 07:13:56;;;;;;;2.92;2.38;;;12.00;81.60;;;;;;5106919;28;20057;-43
2021/01/01 07:16:23;;;;;;;2.88;2.50;;;12.00;81.60;;;;;;5103919;28;20028;-44
2021/01/01 07:18:50;;;;;;;;;;;12.00;81.60;;;;;;5106784;28;20055;-45
2021/01/01 07:21:16;;;;;;;3.92;2.92;;;12.00;81.60;;;;;;5125467;28;19911;-44
2021/01/01 07:23:43;;;;;;;2.95;2.65;;;12.00;81.60;;;;;;5111457;28;20031;-47
2021/01/01 07:26:09;;;;;;;3.70;2.73;;;12.00;81.60;;;;;;5105124;28;20052;-44
2021/01/01 07:28:37;;;;;;;2.90;2.53;;;12.00;81.60;;;;;;5104527;28;20032;-44
2021/01/01 07:31:03;;;;;;;2.97;2.67;;;12.00;82.30;;;;;;5105143;28;20032;-44
2021/01/01 07:33:30;;;;;;;3.33;2.95;;;12.00;81.60;;;;;;5105066;28;20476;-44
2021/01/01 07:35:58;;;;;;;3.17;2.80;;;12.00;81.60;;;;;;5104765;28;20032;-45
2021/01/01 07:38:26;;;;;;;2.72;2.47;;;12.00;81.60;;;;;;5104770;28;20039;-44
2021/01/01 07:40:52;;;;;;;3.10;2.80;;;12.00;81.60;;;;;;5104602;28;20032;-43
2021/01/01 07:43:18;;;;;;;3.27;2.97;;;12.00;81.60;;;;;;5104767;28;20020;-44
2021/01/01 07:45:45;;;;;;;2.95;2.65;;;12.00;81.60;;;;;;5104909;28;20034;-44
2021/01/01 07:48:11;;;;;;;3.15;2.85;;;12.10;81.70;;;;;;5104633;28;20124;-44
2021/01/01 07:50:38;;;;;;;2.63;2.40;;;12.10;81.70;;;;;;5110692;28;20031;-45
2021/01/01 07:53:13;;;;;;;2.85;2.50;;;12.10;81.70;;;;;;5109337;28;20036;-43
2021/01/01 07:55:41;;;;;;;2.85;2.55;;;12.10;81.70;;;;;;5104537;28;20036;-49
2021/01/01 07:58:11;;;;;;;3.10;2.80;;;12.10;81.80;;;;;;5104613;28;20020;-43
2021/01/01 08:00:47;;;;;;;2.67;2.40;;;12.10;81.70;;;;;;5097946;28;20031;-43
2021/01/01 08:03:14;;;;;;;3.00;2.70;;;12.10;81.70;;;;;;5123869;28;20041;-43
2021/01/01 08:05:46;;;;;;;2.70;2.45;;;12.10;81.70;;;;;;5114144;28;20027;-44
2021/01/01 08:08:19;;;;;;;3.10;2.47;;;12.10;81.70;;;;;;5104353;28;20051;-43
2021/01/01 08:10:46;;;;;;;3.05;2.53;;;12.10;82.40;;;;;;5086212;28;20053;-43
2021/01/01 08:13:33;;;;;;;3.15;2.85;;;12.10;81.80;;;;;;5085976;28;20091;-43
2021/01/01 08:16:10;;;;;;;3.72;2.55;;;12.10;81.70;;;;;;5104023;28;20055;-44
2021/01/01 08:18:36;;;;;;;2.53;2.27;;;12.10;81.80;;;;;;5087533;28;20554;-43
2021/01/01 08:21:05;;;;;;;3.40;2.85;;;12.10;81.80;;;;;;5123837;28;20059;-44
2021/01/01 08:23:46;;;;;;;3.08;2.78;;;12.10;81.80;;;;;;5105783;28;20020;-44
2021/01/01 08:26:12;;;;;;;2.72;2.50;;;12.10;82.50;;;;;;5124368;28;20035;-43
2021/01/01 08:28:39;;;;;;;3.67;2.60;;;12.10;81.80;;;;;;5089216;28;20046;-44
2021/01/01 08:31:06;;;;;;;2.75;2.45;;;12.10;81.80;;;;;;5089450;28;20031;-44
2021/01/01 08:33:41;;;;;;;2.85;2.55;;;12.10;81.80;;;;;;5085654;28;20036;-43
2021/01/01 08:36:08;;;;;;;2.60;2.35;;;12.10;81.80;;;;;;5103749;28;20028;-43
2021/01/01 08:38:35;;;;;;;2.42;2.22;;;12.20;81.90;;;;;;5103624;28;20095;-44
2021/01/01 08:41:01;;;;;;;3.17;2.63;;;12.20;81.90;;;;;;5103598;28;20040;-44
2021/01/01 08:43:28;;;;;;;2.50;2.28;;;12.20;81.90;;;;;;5103472;28;20124;-43
2021/01/01 08:45:54;;;;;;;2.67;2.45;;;12.20;81.90;;;;;;5085690;28;20116;-44
2021/01/01 08:48:20;;;;;;;3.28;2.83;;;12.20;81.90;;;;;;5113358;28;20820;-44
2021/01/01 08:50:51;;;;;;;2.67;2.20;;;12.20;81.90;;;;;;5104974;28;20036;-43
2021/01/01 08:53:17;;;;;;;3.72;2.80;;;12.20;81.90;;;;;;5085404;28;20111;-43
2021/01/01 08:55:44;;;;;;;3.28;2.67;;;12.20;81.90;;;;;;5085481;28;20133;-44
2021/01/01 08:58:15;;;;;;;2.58;2.33;;;12.20;81.90;;;;;;5103263;28;20099;-43
2021/01/01 09:00:44;;;;;;;3.72;2.50;;;12.20;81.90;;;;;;5116303;28;20040;-43
2021/01/01 09:03:11;;;;;;;2.85;2.30;;;12.20;81.90;;;;;;5123877;28;20027;-43
2021/01/01 09:05:38;;;;;;;2.55;2.35;;;12.20;81.90;;;;;;5123698;28;20023;-44
2021/01/01 09:08:17;;;;;;;3.38;2.83;;;12.20;81.90;;;;;;5103096;28;20032;-44
2021/01/01 09:10:44;;;;;;;2.30;2.10;;;12.20;81.90;;;;;;5105471;28;20205;-43
2021/01/01 09:13:26;;;;;;;;;;;12.20;81.90;;;;;;5103596;28;20039;-44
2021/01/01 09:16:08;;;;;;;3.10;2.80;;;12.20;81.90;;;;;;5103315;28;19914;-44
2021/01/01 09:18:34;;;;;;;2.78;2.42;;;12.20;82.00;;;;;;5103024;28;20081;-43
2021/01/01 09:21:16;;;;;;;2.47;2.20;;;12.20;82.10;;;;;;5121992;28;20043;-44
2021/01/01 09:23:50;;;;;;;2.47;2.28;;;12.20;82.10;;;;;;5122525;28;20024;-43
2021/01/01 09:26:26;;;;;;;2.60;2.40;;;12.20;82.00;;;;;;5105382;28;20023;-44
2021/01/01 09:29:19;;;;;;;2.25;2.05;;;12.30;82.00;;;;;;5123206;28;20042;-43
2021/01/01 09:31:45;;;;;;;2.55;2.35;;;12.30;82.00;;;;;;5082643;28;20051;-44
2021/01/01 09:34:11;;;;;;;3.13;2.38;;;12.30;82.00;;;;;;5102213;28;20024;-45
2021/01/01 09:36:40;;;;;;;2.33;2.10;;;12.30;82.00;;;;;;5102748;28;20081;-43
2021/01/01 09:39:08;;;;;;;3.85;2.72;;;12.30;82.10;;;;;;5102831;28;20020;-43
2021/01/01 09:41:41;;;;;;;;;;;12.30;82.10;;;;;;5103329;28;20058;-44
2021/01/01 09:44:07;;;;;;;2.92;2.40;;;12.30;82.00;;;;;;5090148;28;19908;-44
2021/01/01 09:46:34;;;;;;;2.40;2.20;;;12.30;82.10;;;;;;5115881;28;20024;-44
2021/01/01 09:49:00;;;;;;;2.30;2.10;;;12.30;82.10;;;;;;5104533;28;20027;-44
2021/01/01 09:51:26;;;;;;;2.28;2.08;;;12.30;82.10;;;;;;5122812;28;20031;-43
2021/01/01 09:53:52;;;;;;;2.60;2.33;;;12.30;82.10;;;;;;5123002;28;20038;-43
2021/01/01 09:56:18;;;;;;;2.55;2.30;;;12.30;82.10;;;;;;5122960;28;20031;-43
2021/01/01 09:58:44;;;;;;;2.30;2.10;;;12.30;82.20;;;;;;5122943;28;20031;-44
2021/01/01 10:01:11;;;;;;;2.17;1.88;;;12.30;82.10;;;;;;5121076;28;20040;-44
2021/01/01 10:03:37;;;;;;;2.50;2.30;;;12.30;82.10;;;;;;5103158;28;20020;-44
2021/01/01 10:06:03;;;;;;;2.25;2.05;;;12.30;82.10;;;;;;5084385;28;20028;-43
2021/01/01 10:08:29;;;;;;;2.40;2.20;;;12.40;82.10;;;;;;5102498;28;20110;-43
2021/01/01 10:10:56;;;;;;;2.63;2.05;;;12.40;82.10;;;;;;5102429;28;20099;-44
2021/01/01 10:13:22;;;;;;;2.28;2.08;;;12.40;82.20;;;;;;5102362;28;20024;-43
2021/01/01 10:15:49;;;;;;;2.55;2.10;;;12.40;82.20;;;;;;5102524;28;20024;-44
2021/01/01 10:18:15;;;;;;;2.15;1.90;;;12.40;82.20;;;;;;5102178;28;20044;-44
2021/01/01 10:20:41;;;;;;;2.17;1.98;;;12.40;82.20;;;;;;5119422;28;20088;-43
2021/01/01 10:23:08;;;;;;;2.42;2.22;;;12.40;82.20;;;;;;5122588;28;20088;-43
2021/01/01 10:25:34;;;;;;;2.67;2.40;;;12.40;82.20;;;;;;5122747;28;20031;-44
2021/01/01 10:28:00;;;;;;;2.10;1.90;;;12.40;82.20;;;;;;5122264;28;20023;-43
2021/01/01 10:30:26;;;;;;;3.28;2.30;;;12.40;82.20;;;;;;5111872;28;20058;-44
2021/01/01 10:32:54;;;;;;;2.10;1.90;;;12.40;82.10;;;;;;5102291;28;20512;-43
2021/01/01 10:35:21;;;;;;;2.40;1.98;;;12.40;82.20;;;;;;5102263;28;20036;-43
2021/01/01 10:37:50;;;;;;;2.78;2.50;;;12.40;82.20;;;;;;5101949;28;20031;-45
2021/01/01 10:40:16;;;;;;;2.35;2.15;;;12.40;82.20;;;;;;5103360;28;20091;-45
2021/01/01 10:42:42;;;;;;;2.45;2.15;;;12.40;82.20;;;;;;5112340;28;20024;-44
2021/01/01 10:45:09;;;;;;;2.08;1.85;;;12.40;82.20;;;;;;5123388;28;20057;-43
2021/01/01 10:47:35;;;;;;;2.40;2.20;;;12.50;82.30;;;;;;5126281;28;20111;-44
2021/01/01 10:50:01;;;;;;;2.25;2.05;;;12.50;82.30;;;;;;5126584;28;20035;-43
2021/01/01 10:52:27;;;;;;;2.10;1.90;;;12.50;82.30;;;;;;5107972;28;20030;-43
2021/01/01 10:54:53;;;;;;;2.00;1.80;;;12.50;82.30;;;;;;5126259;28;20027;-44
2021/01/01 10:57:19;;;;;;;1.92;1.73;;;12.50;82.30;;;;;;5126140;28;20083;-44
2021/01/01 10:59:46;;;;;;;2.17;1.98;;;12.50;82.30;;;;;;5120692;28;20752;-44
2021/01/01 11:02:12;;;;;;;2.25;1.95;;;12.50;82.30;;;;;;5105693;28;20036;-44
2021/01/01 11:04:38;;;;;;;2.03;1.83;;;12.50;82.30;;;;;;5105824;28;20024;-44
2021/01/01 11:07:04;;;;;;;2.72;2.17;;;12.50;82.30;;;;;;5105466;28;20542;-44
2021/01/01 11:09:30;;;;;;;2.35;1.98;;;12.50;82.30;;;;;;5105354;28;20028;-43
2021/01/01 11:11:57;;;;;;;2.00;1.80;;;12.50;82.40;;;;;;5105622;28;20038;-43
2021/01/01 12:20:56;;;;;;;1.80;1.70;;;12.70;82.50;;;;;;5109040;28;20055;-44
2021/01/01 12:26:08;;;;;;;2.20;1.92;;;12.70;82.70;;;;;;5124785;28;20026;-45
2021/01/01 12:28:34;;;;;;;2.55;2.05;;;12.70;82.60;;;;;;5106083;28;20065;-45
2021/01/01 12:31:01;;;;;;;2.35;2.15;;;12.70;82.70;;;;;;5089214;28;20476;-44
2021/01/01 12:33:27;;;;;;;2.08;1.88;;;12.70;82.70;;;;;;5089371;28;20027;-44
2021/01/01 12:35:53;;;;;;;2.97;2.10;;;12.70;82.60;;;;;;5122252;28;20028;-44
2021/01/01 12:38:19;;;;;;;2.42;2.20;;;12.70;82.60;;;;;;5103515;28;20028;-45
2021/01/01 12:40:46;;;;;;;2.33;2.13;;;12.70;82.60;;;;;;5103936;28;20500;-44
2021/01/01 12:43:12;;;;;;;2.33;1.93;;;12.80;82.70;;;;;;5103925;28;20039;-45
2021/01/01 12:45:38;;;;;;;2.17;1.98;;;12.80;82.80;;;;;;5103770;28;20035;-43
2021/01/01 12:48:05;;;;;;;2.85;2.30;;;12.80;82.70;;;;;;5103954;28;20024;-44
2021/01/01 12:50:31;;;;;;;2.30;1.90;;;12.80;82.60;;;;;;5103392;28;20057;-44
2021/01/01 12:52:58;;;;;;;2.45;2.05;;;12.80;82.80;;;;;;5103521;28;20069;-43
2021/01/01 12:55:25;;;;;;;2.95;2.08;;;12.80;82.80;;;;;;5097199;28;20023;-44
2021/01/01 12:57:51;;;;;;;2.30;1.95;;;12.80;82.70;;;;;;5085409;28;20057;-44
2021/01/01 13:00:18;;;;;;;2.25;1.90;;;12.80;82.70;;;;;;5094669;28;20035;-44
2021/01/01 13:02:44;;;;;;;2.38;2.17;;;12.80;82.80;;;;;;5123792;28;20102;-44
2021/01/01 13:05:11;;;;;;;2.25;2.00;;;12.80;82.70;;;;;;5123884;28;20081;-44
2021/01/01 13:07:42;;;;;;;2.27;1.93;;;12.80;82.70;;;;;;5106967;28;20035;-45
2021/01/01 13:10:09;;;;;;;2.42;2.00;;;12.80;82.70;;;;;;5104953;28;20270;-44
2021/01/01 13:12:35;;;;;;;1.80;1.70;;;12.80;82.60;;;;;;5103779;28;20020;-44
2021/01/01 13:15:01;;;;;;;2.00;1.80;;;12.80;82.80;;;;;;5103292;28;20028;-44
2021/01/01 13:17:27;;;;;;;2.28;1.80;;;12.80;82.70;;;;;;5103089;28;20055;-44
2021/01/01 13:19:54;;;;;;;1.98;1.77;;;12.80;82.70;;;;;;5084726;28;20778;-44
2021/01/01 13:22:20;;;;;;;2.53;2.10;;;12.90;82.80;;;;;;5103120;28;20028;-45
2021/01/01 13:24:46;;;;;;;2.15;1.92;;;12.90;82.80;;;;;;5103054;28;20051;-44
2021/01/01 13:27:12;;;;;;;2.10;1.90;;;12.90;82.70;;;;;;5103142;28;20028;-47
2021/01/01 13:29:39;;;;;;;2.63;1.88;;;12.90;82.70;;;;;;5102821;28;20041;-45
2021/01/01 13:32:05;;;;;;;1.67;1.58;;;12.90;82.90;;;;;;5103142;28;20039;-45
2021/01/01 13:34:31;;;;;;;2.13;1.80;;;12.90;82.90;;;;;;5103127;28;20036;-45
2021/01/01 13:36:57;;;;;;;2.22;2.03;;;12.90;82.90;;;;;;5102743;28;20027;-45
2021/01/01 13:39:24;;;;;;;2.22;1.95;;;12.90;82.80;;;;;;5102601;28;20051;-45
2021/01/01 13:41:51;;;;;;;2.10;1.70;;;12.90;82.90;;;;;;5121310;28;20551;-46
2021/01/01 13:44:18;;;;;;;2.33;2.03;;;12.90;82.80;;;;;;5123020;28;20045;-46
2021/01/01 13:46:44;;;;;;;1.42;1.33;;;12.90;82.80;;;;;;5105219;28;20160;-45
2021/01/01 13:49:11;;;;;;;2.00;1.80;;;12.90;82.90;;;;;;5118942;28;20437;-44
2021/01/01 13:51:37;;;;;;;2.20;1.95;;;12.90;82.90;;;;;;5112008;28;20023;-44
2021/01/01 13:54:04;;;;;;;1.98;1.77;;;12.90;82.90;;;;;;5123017;28;20045;-44
2021/01/01 13:56:30;;;;;;;1.83;1.42;;;13.00;83.00;;;;;;5087937;28;20053;-45
2021/01/01 13:58:56;;;;;;;1.83;1.73;;;13.00;83.10;;;;;;5120104;28;20062;-45
2021/01/01 14:01:23;;;;;;;2.88;1.85;;;13.00;83.00;;;;;;5103867;28;20040;-45
2021/01/01 14:03:49;;;;;;;2.38;2.00;;;13.00;83.00;;;;;;5084372;28;20012;-46